5C1 weather

Boerne Stage Field
San Antonio, Texas, United States

Public forecast

Using degrees Fahrenheit for public forecast. Weather courtesy of forecast.io.

Current aviation weather report (METAR) for Boerne Stage Field

Retrieved 2019/10/17 11:35 UTC (19 minutes ago):

K5C1 171135Z AUTO 00000KT 10SM CLR 12/07 A3006 RMK AO1

Closest aviation forecast (TAF) to Boerne Stage Field

Closest forecast is San Antonio International Airport, 16.4 nm (30.3 km) SE. Retrieved 2019/10/17 06:39 UTC (5 hours ago):

TAF KSAT 170537Z 1706/1812 02005KT P6SM BKN100 FM172100 10004KT P6SM SCT100 FM180100 VRB02KT P6SM SCT100